createdAt,value
2023-02-19T00:00:24.838Z,9.59
2023-02-19T00:02:56.958Z,9.53
2023-02-19T00:05:29.675Z,9.46
2023-02-19T00:08:00.840Z,9.51
2023-02-19T00:10:30.773Z,9.55
2023-02-19T00:13:02.069Z,9.59
2023-02-19T00:15:34.995Z,9.56
2023-02-19T00:18:05.544Z,9.57
2023-02-19T00:20:38.215Z,9.48
2023-02-19T00:23:08.237Z,9.62
2023-02-19T00:25:40.548Z,9.62
2023-02-19T00:28:10.591Z,9.61
2023-02-19T00:30:40.556Z,9.54
2023-02-19T00:33:10.943Z,9.66
2023-02-19T00:35:43.518Z,9.82
2023-02-19T00:38:13.871Z,9.84
2023-02-19T00:40:43.868Z,9.89
2023-02-19T00:43:13.825Z,9.97
2023-02-19T00:45:43.890Z,10.22
2023-02-19T00:48:13.927Z,10.30
2023-02-19T00:50:46.785Z,10.54
2023-02-19T00:53:16.746Z,10.53
2023-02-19T00:55:46.807Z,10.50
2023-02-19T00:58:16.815Z,10.58
2023-02-19T01:00:46.810Z,10.69
2023-02-19T01:03:16.850Z,10.63
2023-02-19T01:05:49.402Z,10.67
2023-02-19T01:08:19.891Z,10.68
2023-02-19T01:10:50.699Z,10.69
2023-02-19T01:13:21.682Z,10.63
2023-02-19T01:15:51.732Z,10.60
2023-02-19T01:18:21.882Z,10.55
2023-02-19T01:20:54.483Z,10.63
2023-02-19T01:23:24.487Z,10.54
2023-02-19T01:25:54.725Z,10.61
2023-02-19T01:28:25.083Z,10.60
2023-02-19T01:30:55.107Z,10.63
2023-02-19T01:33:25.302Z,10.55
2023-02-19T01:35:57.861Z,10.72
2023-02-19T01:38:28.335Z,10.59
2023-02-19T01:40:59.743Z,10.62
2023-02-19T01:43:30.745Z,10.59
2023-02-19T01:46:00.895Z,10.36
2023-02-19T01:48:38.136Z,10.18
2023-02-19T01:51:20.625Z,10.03
2023-02-19T01:53:58.060Z,9.95
2023-02-19T01:56:30.891Z,9.99
2023-02-19T01:59:02.833Z,10.09
2023-02-19T02:01:32.799Z,10.17
2023-02-19T02:04:03.860Z,10.25
2023-02-19T02:06:43.946Z,10.34
2023-02-19T02:09:27.218Z,10.35
2023-02-19T02:11:57.271Z,10.33
2023-02-19T02:14:33.023Z,10.33
2023-02-19T02:17:16.966Z,10.43
2023-02-19T02:20:25.542Z,10.32
2023-02-19T02:23:11.616Z,10.32
2023-02-19T02:26:11.491Z,10.28
2023-02-19T02:29:24.343Z,10.23
2023-02-19T02:32:01.974Z,10.36
2023-02-19T02:34:40.342Z,10.19
2023-02-19T02:37:13.526Z,9.89
2023-02-19T02:39:47.334Z,9.69
2023-02-19T02:42:32.478Z,9.50
2023-02-19T02:45:40.077Z,9.45
2023-02-19T02:48:42.649Z,9.36
2023-02-19T02:51:22.428Z,9.34
2023-02-19T02:54:28.719Z,9.46
2023-02-19T02:57:02.393Z,9.47
2023-02-19T02:59:41.827Z,9.62
2023-02-19T03:02:19.138Z,9.55
2023-02-19T03:05:14.828Z,9.72
2023-02-19T03:07:52.706Z,9.83
2023-02-19T03:10:34.129Z,9.84
2023-02-19T03:13:25.649Z,9.88
2023-02-19T03:16:20.133Z,9.85
2023-02-19T03:19:09.836Z,9.86
2023-02-19T03:21:48.634Z,9.74
2023-02-19T03:24:36.443Z,9.69
2023-02-19T03:27:08.048Z,9.40
2023-02-19T03:29:47.705Z,9.30
2023-02-19T03:32:23.094Z,9.16
2023-02-19T03:35:01.933Z,9.07
2023-02-19T03:37:42.089Z,9.02
2023-02-19T03:40:13.456Z,8.90
2023-02-19T03:42:59.025Z,8.86
2023-02-19T03:45:48.773Z,8.83
2023-02-19T03:48:33.329Z,8.74
2023-02-19T03:51:23.217Z,8.73
2023-02-19T03:54:10.164Z,8.76
2023-02-19T03:56:48.109Z,8.71
2023-02-19T03:59:30.135Z,8.66
2023-02-19T04:02:08.674Z,8.64
2023-02-19T04:04:44.707Z,8.60
2023-02-19T04:07:15.271Z,8.62
2023-02-19T04:09:53.432Z,8.58
2023-02-19T04:12:26.964Z,8.56
2023-02-19T04:15:05.960Z,8.56
2023-02-19T04:17:41.476Z,8.55
2023-02-19T04:20:15.110Z,8.54
2023-02-19T04:22:46.252Z,8.52
2023-02-19T04:25:18.910Z,8.57
2023-02-19T04:27:49.698Z,8.54
2023-02-19T04:30:20.041Z,8.52
2023-02-19T04:32:50.059Z,8.54
2023-02-19T04:35:20.157Z,8.55
2023-02-19T04:37:50.178Z,8.66
2023-02-19T04:40:22.900Z,8.59
2023-02-19T04:42:52.862Z,8.57
2023-02-19T04:45:22.872Z,8.60
2023-02-19T04:47:52.959Z,8.67
2023-02-19T04:50:23.304Z,8.82
2023-02-19T04:52:53.532Z,8.73
2023-02-19T04:55:26.402Z,8.75
2023-02-19T04:57:56.391Z,8.97
2023-02-19T05:00:26.414Z,9.03
2023-02-19T05:02:56.349Z,9.17
2023-02-19T05:05:26.275Z,9.10
2023-02-19T05:07:56.813Z,8.99
2023-02-19T05:10:29.422Z,9.01
2023-02-19T05:12:59.342Z,9.01
2023-02-19T05:15:29.276Z,9.04
2023-02-19T05:17:59.261Z,9.05
2023-02-19T05:20:29.311Z,9.00
2023-02-19T05:22:59.293Z,9.01
2023-02-19T05:25:31.847Z,9.07
2023-02-19T05:28:14.097Z,9.04
2023-02-19T05:30:44.211Z,9.05
2023-02-19T05:33:14.447Z,9.08
2023-02-19T05:35:46.357Z,9.07
2023-02-19T05:38:17.262Z,9.06
2023-02-19T05:40:50.606Z,9.14
2023-02-19T05:43:20.855Z,9.13
2023-02-19T05:45:50.829Z,9.11
2023-02-19T05:48:20.773Z,9.14
2023-02-19T05:50:50.706Z,9.07
2023-02-19T05:53:20.669Z,9.08
2023-02-19T05:55:53.217Z,9.06
2023-02-19T05:58:23.160Z,8.94
2023-02-19T06:00:53.217Z,8.79
2023-02-19T06:03:23.609Z,8.71
2023-02-19T06:05:53.544Z,8.86
2023-02-19T06:08:23.501Z,8.85
2023-02-19T06:10:55.996Z,8.83
2023-02-19T06:13:25.982Z,8.90
2023-02-19T06:15:56.320Z,8.85
2023-02-19T06:18:26.376Z,8.69
2023-02-19T06:20:56.348Z,8.61
2023-02-19T06:23:26.632Z,8.45
2023-02-19T06:26:08.468Z,8.45
2023-02-19T06:28:38.903Z,8.36
2023-02-19T06:31:10.089Z,8.25
2023-02-19T06:33:42.457Z,8.22
2023-02-19T06:36:16.734Z,8.07
2023-02-19T06:38:47.490Z,7.97
2023-02-19T06:41:20.911Z,7.97
2023-02-19T06:43:50.926Z,7.98
2023-02-19T06:46:21.010Z,7.93
2023-02-19T06:48:51.028Z,7.99
2023-02-19T06:51:23.844Z,7.95
2023-02-19T06:53:53.810Z,7.89
2023-02-19T06:56:33.803Z,7.90
2023-02-19T06:59:06.336Z,7.85
2023-02-19T07:01:38.506Z,7.88
2023-02-19T07:04:10.343Z,7.82
2023-02-19T07:06:40.886Z,7.87
2023-02-19T07:09:12.771Z,7.99
2023-02-19T07:11:45.391Z,8.10
2023-02-19T07:14:20.188Z,8.24
2023-02-19T07:16:50.656Z,8.44
2023-02-19T07:19:20.996Z,8.41
2023-02-19T07:21:50.912Z,8.46
2023-02-19T07:24:21.684Z,8.62
2023-02-19T07:26:54.269Z,8.62
2023-02-19T07:29:24.416Z,8.43
2023-02-19T07:31:54.430Z,8.22
2023-02-19T07:34:24.494Z,8.07
2023-02-19T07:36:54.603Z,8.01
2023-02-19T07:39:24.588Z,8.03
2023-02-19T07:41:57.347Z,8.04
2023-02-19T07:44:30.718Z,8.17
2023-02-19T07:47:00.686Z,8.22
2023-02-19T07:49:30.654Z,8.32
2023-02-19T07:52:00.796Z,8.39
2023-02-19T07:54:31.011Z,8.48
2023-02-19T07:57:03.613Z,8.62
2023-02-19T07:59:33.560Z,8.76
2023-02-19T08:02:16.000Z,8.91
2023-02-19T08:04:45.959Z,9.04
2023-02-19T08:07:15.912Z,9.16
2023-02-19T08:10:05.890Z,9.22
2023-02-19T08:12:51.007Z,9.35
2023-02-19T08:15:22.508Z,9.42
2023-02-19T08:17:52.641Z,9.42
2023-02-19T08:20:22.686Z,9.48
2023-02-19T08:22:52.639Z,9.52
2023-02-19T08:25:22.639Z,9.56
2023-02-19T08:27:55.340Z,9.59
2023-02-19T08:30:26.944Z,9.86
2023-02-19T08:32:57.447Z,9.84
2023-02-19T08:35:28.155Z,10.11
2023-02-19T08:37:58.934Z,10.09
2023-02-19T08:40:29.867Z,9.55
2023-02-19T08:43:06.547Z,9.06
2023-02-19T08:45:37.260Z,8.93
2023-02-19T08:48:08.079Z,8.92
2023-02-19T08:50:39.526Z,9.10
2023-02-19T08:53:10.096Z,9.62
2023-02-19T08:55:41.748Z,9.85
2023-02-19T08:58:14.394Z,9.61
2023-02-19T09:00:44.366Z,9.73
2023-02-19T09:03:14.333Z,9.81
2023-02-19T09:05:46.904Z,9.70
2023-02-19T09:08:16.896Z,9.65
2023-02-19T09:10:46.887Z,9.69
2023-02-19T09:13:19.488Z,9.68
2023-02-19T09:15:49.448Z,9.79
2023-02-19T09:18:19.458Z,9.83
2023-02-19T09:20:49.508Z,9.84
2023-02-19T09:23:19.576Z,9.92
2023-02-19T09:25:49.706Z,9.81
2023-02-19T09:28:22.499Z,9.94
2023-02-19T09:30:52.801Z,10.15
2023-02-19T09:33:22.932Z,10.36
2023-02-19T09:35:52.893Z,10.66
2023-02-19T09:38:22.916Z,10.56
2023-02-19T09:40:52.867Z,10.54
2023-02-19T09:43:30.631Z,10.64
2023-02-19T09:46:06.999Z,10.45
2023-02-19T09:48:37.074Z,10.55
2023-02-19T09:51:10.120Z,10.92
2023-02-19T09:53:47.384Z,10.84
2023-02-19T09:56:17.400Z,11.14
2023-02-19T09:58:54.411Z,11.51
2023-02-19T10:01:31.048Z,11.75
2023-02-19T10:04:01.320Z,11.36
2023-02-19T10:06:32.374Z,11.51
2023-02-19T10:09:21.611Z,11.67
2023-02-19T10:11:54.363Z,11.60
2023-02-19T10:14:38.366Z,11.62
2023-02-19T10:17:12.689Z,11.88
2023-02-19T10:19:42.662Z,11.96
2023-02-19T10:22:15.169Z,11.63
2023-02-19T10:24:46.888Z,11.72
2023-02-19T10:27:18.335Z,11.45
2023-02-19T10:29:52.994Z,11.88
2023-02-19T10:32:26.572Z,12.22
2023-02-19T10:35:16.921Z,12.27
2023-02-19T10:37:50.101Z,11.75
2023-02-19T10:40:23.534Z,11.39
2023-02-19T10:42:57.159Z,11.32
2023-02-19T10:45:42.629Z,11.26
2023-02-19T10:48:27.468Z,11.00
2023-02-19T10:51:05.067Z,11.06
2023-02-19T10:53:50.642Z,11.28
2023-02-19T10:56:30.065Z,11.30
2023-02-19T10:59:25.760Z,11.34
2023-02-19T11:02:04.257Z,11.70
2023-02-19T11:04:38.113Z,11.87
2023-02-19T11:07:13.420Z,12.10
2023-02-19T11:09:48.267Z,11.93
2023-02-19T11:12:29.212Z,12.56
2023-02-19T11:14:59.848Z,13.10
2023-02-19T11:17:33.831Z,12.80
2023-02-19T11:20:18.690Z,12.93
2023-02-19T11:22:49.875Z,12.95
2023-02-19T11:25:25.930Z,12.78
2023-02-19T11:28:09.624Z,13.00
2023-02-19T11:30:42.997Z,13.09
2023-02-19T11:33:30.555Z,12.66
2023-02-19T11:36:30.089Z,12.61
2023-02-19T11:39:05.326Z,12.28
2023-02-19T11:42:11.711Z,12.66
2023-02-19T11:45:06.831Z,12.67
2023-02-19T11:48:19.676Z,12.60
2023-02-19T11:51:06.475Z,12.32
2023-02-19T11:53:45.125Z,12.78
2023-02-19T11:56:21.865Z,12.62
2023-02-19T11:59:08.141Z,12.59
2023-02-19T12:02:21.072Z,12.26
2023-02-19T12:05:31.624Z,11.93
2023-02-19T12:08:50.468Z,12.18
2023-02-19T12:12:03.705Z,12.25
2023-02-19T12:15:04.924Z,12.20
2023-02-19T12:18:33.931Z,12.13
2023-02-19T12:21:26.457Z,12.13
2023-02-19T12:24:29.823Z,12.20
2023-02-19T12:27:22.047Z,12.34
2023-02-19T12:30:22.987Z,12.42
2023-02-19T12:33:25.385Z,12.33
2023-02-19T12:36:07.503Z,12.11
2023-02-19T12:38:47.784Z,12.47
2023-02-19T12:41:40.565Z,12.88
2023-02-19T12:44:22.058Z,13.03
2023-02-19T12:46:56.697Z,12.42
2023-02-19T12:49:34.492Z,12.19
2023-02-19T12:52:12.883Z,12.06
2023-02-19T12:54:48.582Z,12.13
2023-02-19T12:57:26.911Z,12.04
2023-02-19T13:00:07.429Z,12.57
2023-02-19T13:02:47.936Z,12.65
2023-02-19T13:05:26.934Z,12.61
2023-02-19T13:08:07.242Z,12.75
2023-02-19T13:10:43.932Z,12.95
2023-02-19T13:13:25.329Z,13.34
2023-02-19T13:16:03.512Z,13.29
2023-02-19T13:18:42.709Z,13.22
2023-02-19T13:21:35.323Z,12.32
2023-02-19T13:24:08.953Z,12.07
2023-02-19T13:27:01.473Z,11.94
2023-02-19T13:29:56.258Z,11.81
2023-02-19T13:33:01.805Z,11.77
2023-02-19T13:36:11.817Z,11.87
2023-02-19T13:38:45.851Z,11.50
2023-02-19T13:41:30.725Z,11.44
2023-02-19T13:44:05.910Z,11.63
2023-02-19T13:46:44.442Z,11.95
2023-02-19T13:49:45.415Z,12.13
2023-02-19T13:52:43.663Z,11.85
2023-02-19T13:55:55.903Z,11.97
2023-02-19T13:59:02.514Z,11.57
2023-02-19T14:02:32.187Z,11.52
2023-02-19T14:05:09.305Z,11.45
2023-02-19T14:07:57.535Z,11.33
2023-02-19T14:11:02.649Z,11.28
2023-02-19T14:14:11.098Z,11.29
2023-02-19T14:17:08.163Z,11.16
2023-02-19T14:19:57.494Z,11.17
2023-02-19T14:23:06.167Z,11.25
2023-02-19T14:26:05.267Z,11.30
2023-02-19T14:28:45.653Z,11.24
2023-02-19T14:31:27.029Z,11.40
2023-02-19T14:34:03.398Z,11.27
2023-02-19T14:36:44.257Z,11.48
2023-02-19T14:39:20.690Z,11.24
2023-02-19T14:41:58.646Z,11.05
2023-02-19T14:44:33.257Z,11.13
2023-02-19T14:47:09.494Z,11.05
2023-02-19T14:49:47.509Z,11.43
2023-02-19T14:52:24.803Z,11.38
2023-02-19T14:55:00.885Z,11.25
2023-02-19T14:57:40.990Z,11.12
2023-02-19T15:00:28.935Z,11.14
2023-02-19T15:03:02.662Z,11.04
2023-02-19T15:05:36.649Z,11.03
2023-02-19T15:08:14.794Z,10.94
2023-02-19T15:10:46.502Z,10.90
2023-02-19T15:13:29.678Z,11.11
2023-02-19T15:16:01.080Z,10.94
2023-02-19T15:18:36.267Z,10.71
2023-02-19T15:21:10.077Z,10.74
2023-02-19T15:23:41.699Z,10.74
2023-02-19T15:26:25.015Z,10.91
2023-02-19T15:29:11.569Z,10.87
2023-02-19T15:31:49.479Z,10.78
2023-02-19T15:34:22.071Z,10.69
2023-02-19T15:36:55.433Z,10.74
2023-02-19T15:39:28.422Z,10.64
2023-02-19T15:42:03.328Z,10.52
2023-02-19T15:44:49.275Z,10.47
2023-02-19T15:47:33.180Z,10.51
2023-02-19T15:50:11.538Z,10.33
2023-02-19T15:52:51.022Z,10.31
2023-02-19T15:55:34.120Z,10.28
2023-02-19T15:58:11.867Z,10.27
2023-02-19T16:00:51.752Z,10.23
2023-02-19T16:03:25.068Z,10.23
2023-02-19T16:06:10.526Z,10.12
2023-02-19T16:08:43.477Z,9.95
2023-02-19T16:11:31.738Z,10.04
2023-02-19T16:14:25.363Z,9.99
2023-02-19T16:17:02.348Z,9.98
2023-02-19T16:19:45.031Z,9.87
2023-02-19T16:22:18.843Z,9.79
2023-02-19T16:24:52.341Z,9.76
2023-02-19T16:27:34.170Z,9.81
2023-02-19T16:30:26.304Z,9.95
2023-02-19T16:33:36.341Z,9.70
2023-02-19T16:36:29.812Z,9.61
2023-02-19T16:39:26.211Z,9.69
2023-02-19T16:42:21.059Z,9.68
2023-02-19T16:44:51.172Z,9.67
2023-02-19T16:47:38.182Z,9.53
2023-02-19T16:50:19.585Z,9.43
2023-02-19T16:52:57.271Z,9.42
2023-02-19T16:55:28.162Z,9.55
2023-02-19T16:57:58.655Z,9.47
2023-02-19T17:00:31.444Z,9.29
2023-02-19T17:03:09.015Z,9.35
2023-02-19T17:05:43.532Z,9.51
2023-02-19T17:08:34.206Z,9.44
2023-02-19T17:11:06.353Z,9.28
2023-02-19T17:13:36.632Z,9.17
2023-02-19T17:16:07.786Z,9.03
2023-02-19T17:18:37.773Z,9.16
2023-02-19T17:21:18.546Z,9.05
2023-02-19T17:23:48.768Z,9.06
2023-02-19T17:26:21.461Z,9.05
2023-02-19T17:28:51.955Z,8.99
2023-02-19T17:31:22.188Z,9.03
2023-02-19T17:33:52.523Z,8.91
2023-02-19T17:36:30.633Z,8.80
2023-02-19T17:39:01.809Z,8.77
2023-02-19T17:41:32.547Z,8.71
2023-02-19T17:44:02.543Z,8.75
2023-02-19T17:46:32.514Z,8.64
2023-02-19T17:49:02.460Z,8.71
2023-02-19T17:51:35.009Z,8.75
2023-02-19T17:54:06.957Z,8.68
2023-02-19T17:56:43.182Z,8.66
2023-02-19T17:59:13.498Z,8.74
2023-02-19T18:01:43.467Z,8.93
2023-02-19T18:04:13.450Z,8.67
2023-02-19T18:06:46.236Z,8.69
2023-02-19T18:09:19.380Z,8.75
2023-02-19T18:11:49.672Z,8.67
2023-02-19T18:14:19.747Z,8.73
2023-02-19T18:16:51.259Z,8.78
2023-02-19T18:19:22.994Z,8.74
2023-02-19T18:21:55.558Z,8.85
2023-02-19T18:24:25.605Z,8.73
2023-02-19T18:26:55.594Z,8.66
2023-02-19T18:29:27.213Z,8.67
2023-02-19T18:31:57.250Z,8.72
2023-02-19T18:34:27.334Z,8.73
2023-02-19T18:36:59.924Z,8.63
2023-02-19T18:39:30.356Z,8.59
2023-02-19T18:42:01.207Z,8.66
2023-02-19T18:44:31.271Z,8.76
2023-02-19T18:47:01.228Z,8.83
2023-02-19T18:49:32.463Z,8.87
2023-02-19T18:52:05.032Z,8.86
2023-02-19T18:54:36.069Z,9.01
2023-02-19T18:57:06.379Z,9.03
2023-02-19T18:59:36.349Z,9.04
2023-02-19T19:02:07.818Z,8.98
2023-02-19T19:04:41.370Z,9.00
2023-02-19T19:07:14.025Z,8.98
2023-02-19T19:09:44.024Z,9.00
2023-02-19T19:12:14.413Z,8.99
2023-02-19T19:14:44.997Z,9.00
2023-02-19T19:17:15.195Z,9.06
2023-02-19T19:19:47.253Z,9.11
2023-02-19T19:22:22.833Z,9.16
2023-02-19T19:24:52.766Z,9.26
2023-02-19T19:27:23.496Z,9.33
2023-02-19T19:29:53.992Z,9.27
2023-02-19T19:32:24.419Z,9.09
2023-02-19T19:34:54.482Z,9.18
2023-02-19T19:37:29.453Z,9.30
2023-02-19T19:39:59.815Z,9.23
2023-02-19T19:42:29.853Z,9.22
2023-02-19T19:44:59.830Z,9.18
2023-02-19T19:47:30.032Z,9.20
2023-02-19T19:50:00.432Z,9.22
2023-02-19T19:52:32.990Z,9.20
2023-02-19T19:55:04.022Z,9.09
2023-02-19T19:57:34.038Z,9.14
2023-02-19T20:00:04.553Z,9.15
2023-02-19T20:02:42.243Z,9.08
2023-02-19T20:05:12.990Z,9.04
2023-02-19T20:07:46.069Z,9.01
2023-02-19T20:10:20.032Z,8.93
2023-02-19T20:12:50.248Z,8.85
2023-02-19T20:15:24.503Z,8.83
2023-02-19T20:17:54.615Z,8.89
2023-02-19T20:20:25.415Z,8.93
2023-02-19T20:22:57.981Z,8.91
2023-02-19T20:25:28.660Z,8.97
2023-02-19T20:27:58.766Z,9.07
2023-02-19T20:30:32.222Z,9.02
2023-02-19T20:33:02.329Z,8.98
2023-02-19T20:35:32.529Z,8.76
2023-02-19T20:38:05.116Z,8.80
2023-02-19T20:40:36.197Z,8.80
2023-02-19T20:43:06.240Z,8.76
2023-02-19T20:45:41.023Z,8.79
2023-02-19T20:48:11.012Z,8.80
2023-02-19T20:50:40.989Z,8.95
2023-02-19T20:53:14.212Z,8.88
2023-02-19T20:55:44.870Z,8.72
2023-02-19T20:58:14.880Z,8.99
2023-02-19T21:00:45.743Z,8.74
2023-02-19T21:03:15.796Z,8.74
2023-02-19T21:05:45.812Z,8.57
2023-02-19T21:08:18.412Z,8.59
2023-02-19T21:10:49.647Z,8.85
2023-02-19T21:13:19.973Z,8.83
2023-02-19T21:15:50.420Z,8.73
2023-02-19T21:18:20.441Z,8.72
2023-02-19T21:20:50.464Z,8.71
2023-02-19T21:23:23.029Z,8.71
2023-02-19T21:25:54.554Z,8.66
2023-02-19T21:28:24.715Z,8.44
2023-02-19T21:30:54.739Z,8.49
2023-02-19T21:33:24.737Z,8.63
2023-02-19T21:35:54.851Z,8.63
2023-02-19T21:38:27.449Z,8.47
2023-02-19T21:40:57.600Z,8.52
2023-02-19T21:43:27.704Z,8.55
2023-02-19T21:45:57.811Z,8.45
2023-02-19T21:48:27.823Z,8.55
2023-02-19T21:50:57.822Z,8.56
2023-02-19T21:53:30.389Z,8.58
2023-02-19T21:56:00.687Z,8.48
2023-02-19T21:58:30.656Z,8.57
2023-02-19T22:01:00.813Z,8.58
2023-02-19T22:03:31.047Z,8.38
2023-02-19T22:06:04.750Z,8.35
2023-02-19T22:08:37.350Z,8.25
2023-02-19T22:11:07.891Z,8.18
2023-02-19T22:13:39.615Z,8.17
2023-02-19T22:16:10.405Z,8.21
2023-02-19T22:18:40.568Z,8.42
2023-02-19T22:21:10.647Z,8.36
2023-02-19T22:23:47.714Z,8.39
2023-02-19T22:26:22.707Z,8.39
2023-02-19T22:28:53.866Z,8.19
2023-02-19T22:31:26.862Z,8.19
2023-02-19T22:33:58.694Z,8.04
2023-02-19T22:36:31.615Z,7.95
2023-02-19T22:39:04.963Z,8.00
2023-02-19T22:41:35.137Z,7.87
2023-02-19T22:44:05.163Z,8.06
2023-02-19T22:46:35.144Z,7.93
2023-02-19T22:49:07.975Z,7.94
2023-02-19T22:51:38.260Z,8.03
2023-02-19T22:54:10.884Z,7.90
2023-02-19T22:56:40.869Z,7.83
2023-02-19T22:59:10.895Z,7.86
2023-02-19T23:01:40.893Z,7.80
2023-02-19T23:04:10.883Z,7.82
2023-02-19T23:06:41.496Z,7.88
2023-02-19T23:09:19.966Z,7.79
2023-02-19T23:11:50.051Z,7.86
2023-02-19T23:14:22.837Z,7.84
2023-02-19T23:16:52.946Z,7.84
2023-02-19T23:19:23.100Z,8.01
2023-02-19T23:21:53.522Z,8.18
2023-02-19T23:24:26.195Z,8.07
2023-02-19T23:26:57.774Z,8.07
2023-02-19T23:29:30.808Z,8.11
2023-02-19T23:32:01.437Z,7.96
2023-02-19T23:34:31.571Z,8.02
2023-02-19T23:37:02.397Z,7.99
2023-02-19T23:39:34.959Z,7.92
2023-02-19T23:42:04.956Z,7.93
2023-02-19T23:44:35.038Z,7.72
2023-02-19T23:47:05.115Z,7.70
2023-02-19T23:49:35.488Z,7.62
2023-02-19T23:52:05.580Z,7.67
2023-02-19T23:54:39.397Z,7.66
2023-02-19T23:57:09.377Z,7.79
2023-02-19T23:59:39.377Z,7.97
